Time;durP1;ratioP1;P1;durP2;ratioP2;P2;SDS_P1;SDS_P2;PMS_P1;PMS_P2;Temp;Humidity;BMP_temperature;BMP_pressure;BME280_temperature;BME280_humidity;BME280_pressure;Samples;Min_cycle;Max_cycle;Signal;HPM_P1;HPM_P2
2023/11/01 00:00:50;;;;;;;;;4.50;2.75;;;;;15.37;89.37;100225.50;5059138;28;45319;-61
2023/11/01 00:03:15;;;;;;;;;2.00;2.00;;;;;15.24;89.20;100203.88;5059499;28;45256;-62
2023/11/01 00:05:41;;;;;;;;;2.00;1.00;;;;;15.36;89.47;100207.63;5059080;28;46367;-61
2023/11/01 00:08:06;;;;;;;;;4.75;3.25;;;;;15.40;89.31;100228.00;5059273;28;45420;-62
2023/11/01 00:10:31;;;;;;;;;3.50;3.50;;;;;15.45;89.11;100235.78;5059299;28;46174;-61
2023/11/01 00:12:57;;;;;;;;;4.50;2.50;;;;;15.48;89.33;100238.28;5058060;28;45596;-62
2023/11/01 00:15:22;;;;;;;;;2.25;1.00;;;;;15.56;89.46;100238.69;5058739;28;46342;-62
2023/11/01 00:17:47;;;;;;;;;3.75;2.00;;;;;15.50;89.46;100226.50;5059110;28;45537;-61
2023/11/01 00:20:13;;;;;;;;;7.50;3.50;;;;;15.44;89.52;100215.25;5057869;28;45336;-62
2023/11/01 00:22:38;;;;;;;;;3.00;2.00;;;;;15.37;89.18;100204.84;5059148;28;45475;-61
2023/11/01 00:25:04;;;;;;;;;2.00;2.00;;;;;15.53;89.20;100228.13;5058797;28;45970;-61
2023/11/01 00:27:31;;;;;;;;;2.00;1.75;;;;;15.55;89.17;100231.56;5057821;28;45557;-61
2023/11/01 00:29:59;;;;;;;;;2.00;2.00;;;;;15.37;89.01;100195.94;5058754;28;45520;-61
2023/11/01 00:32:24;;;;;;;;;3.75;2.00;;;;;15.40;89.40;100200.25;5058266;28;45496;-61
2023/11/01 00:34:49;;;;;;;;;3.25;3.25;;;;;15.38;89.37;100192.25;5058908;28;45629;-61
2023/11/01 00:37:15;;;;;;;;;2.00;2.00;;;;;15.46;89.28;100207.94;5058951;28;45472;-61
2023/11/01 00:39:40;;;;;;;;;2.50;1.75;;;;;15.53;89.37;100225.44;5059001;28;45326;-61
2023/11/01 00:42:06;;;;;;;;;4.50;3.00;;;;;15.42;89.53;100209.06;5066553;28;45621;-62
2023/11/01 00:44:31;;;;;;;;;2.00;2.00;;;;;15.37;89.52;100193.25;5062783;27;45513;-61
2023/11/01 00:46:57;;;;;;;;;4.50;2.00;;;;;15.53;89.19;100217.34;5061525;28;45462;-61
2023/11/01 00:49:22;;;;;;;;;3.75;1.25;;;;;15.30;89.31;100183.78;5074783;28;45655;-61
2023/11/01 00:51:47;;;;;;;;;1.75;1.25;;;;;15.38;89.57;100198.53;5079155;27;45306;-61
2023/11/01 00:54:13;;;;;;;;;5.75;2.75;;;;;15.36;89.42;100186.13;5078789;27;45652;-61
2023/11/01 00:56:38;;;;;;;;;2.75;2.75;;;;;15.32;89.42;100185.44;5077438;28;52267;-61
2023/11/01 00:59:04;;;;;;;;;4.75;2.00;;;;;15.29;89.44;100174.03;5078800;27;45463;-62
2023/11/01 01:01:29;;;;;;;;;2.00;1.00;;;;;15.38;89.24;100182.41;5079007;27;45461;-61
2023/11/01 01:03:54;;;;;;;;;3.75;3.00;;;;;15.45;89.11;100188.25;5078734;27;45448;-61
2023/11/01 01:06:20;;;;;;;;;3.50;3.00;;;;;15.26;89.26;100158.94;5068421;28;45469;-61
2023/11/01 01:08:45;;;;;;;;;4.50;2.00;;;;;15.36;88.95;100172.69;5059198;28;45469;-61
2023/11/01 01:11:11;;;;;;;;;2.75;2.00;;;;;15.33;89.00;100172.84;5078875;27;45437;-61
2023/11/01 01:13:36;;;;;;;;;4.75;3.00;;;;;15.34;89.03;100175.47;5078149;27;45481;-61
2023/11/01 01:16:03;;;;;;;;;5.00;2.00;;;;;15.44;89.16;100191.03;5068642;27;45356;-62
2023/11/01 01:18:28;;;;;;;;;2.00;2.00;;;;;15.51;89.12;100197.75;5072861;28;45545;-62
2023/11/01 01:20:54;;;;;;;;;5.50;2.75;;;;;15.42;89.16;100182.19;5078599;27;45395;-61
2023/11/01 01:23:20;;;;;;;;;2.25;2.00;;;;;15.42;89.12;100179.50;5078402;28;45441;-62
2023/11/01 01:25:45;;;;;;;;;3.00;3.00;;;;;15.39;88.99;100164.44;5068150;27;45324;-61
2023/11/01 01:28:10;;;;;;;;;3.75;2.25;;;;;15.32;88.79;100144.25;5074053;28;45352;-62
2023/11/01 01:30:36;;;;;;;;;3.25;2.25;;;;;15.56;88.62;100190.28;5078307;27;45426;-61
2023/11/01 01:33:01;;;;;;;;;4.00;1.50;;;;;15.55;88.92;100181.34;5064748;27;45509;-61
2023/11/01 01:35:27;;;;;;;;;2.00;0.75;;;;;15.39;88.77;100153.66;5078593;27;45294;-61
2023/11/01 01:37:52;;;;;;;;;2.50;1.25;;;;;15.39;88.87;100153.66;5077192;28;45367;-62
2023/11/01 01:40:17;;;;;;;;;2.50;1.75;;;;;15.36;88.83;100145.78;5078685;27;45591;-61
2023/11/01 01:42:43;;;;;;;;;5.75;3.00;;;;;15.55;88.90;100175.97;5077192;27;45557;-61
2023/11/01 01:45:09;;;;;;;;;1.75;1.00;;;;;15.50;88.87;100172.69;5066549;28;45400;-62
2023/11/01 01:47:35;;;;;;;;;2.50;2.50;;;;;15.35;88.92;100146.72;5060245;28;45395;-62
2023/11/01 01:50:01;;;;;;;;;2.00;2.00;;;;;15.54;88.89;100160.78;5061459;28;45601;-62
2023/11/01 01:52:26;;;;;;;;;6.00;2.25;;;;;15.32;88.67;100123.59;5061421;28;45472;-61
2023/11/01 01:54:53;;;;;;;;;2.00;2.00;;;;;15.40;88.85;100128.47;5061350;28;45346;-61
2023/11/01 01:57:26;;;;;;;;;1.75;1.00;;;;;15.41;88.97;100124.84;5061507;28;45354;-61
2023/11/01 01:59:52;;;;;;;;;4.00;1.25;;;;;15.47;88.96;100132.53;5061042;28;45519;-61
2023/11/01 02:02:21;;;;;;;;;3.25;1.25;;;;;15.43;88.92;100127.44;5076757;28;47158;-61
2023/11/01 02:04:48;;;;;;;;;4.00;2.00;;;;;15.41;88.88;100119.47;5059987;28;45495;-62
2023/11/01 02:07:14;;;;;;;;;2.00;1.00;;;;;15.37;88.75;100109.88;5061025;28;45763;-61
2023/11/01 02:09:40;;;;;;;;;0.75;0.75;;;;;15.39;88.90;100118.72;5069275;28;45520;-62
2023/11/01 02:12:05;;;;;;;;;4.25;2.00;;;;;15.33;89.14;100100.25;5064994;27;45553;-62
2023/11/01 02:14:31;;;;;;;;;3.25;2.00;;;;;15.45;89.13;100112.06;5060766;28;45425;-62
2023/11/01 02:16:56;;;;;;;;;1.50;1.00;;;;;15.35;88.78;100093.84;5073440;28;45377;-62
2023/11/01 02:19:24;;;;;;;;;1.75;1.75;;;;;15.26;88.82;100074.72;5060997;28;45353;-61
2023/11/01 02:21:50;;;;;;;;;2.00;1.00;;;;;15.55;88.90;100116.78;5060669;28;46490;-61
2023/11/01 02:24:16;;;;;;;;;3.75;2.00;;;;;15.59;89.16;100112.06;5060937;28;45346;-61
2023/11/01 02:26:41;;;;;;;;;4.50;2.00;;;;;15.31;88.81;100064.53;5061060;28;45345;-61
2023/11/01 02:29:07;;;;;;;;;3.25;1.00;;;;;15.44;88.73;100080.78;5060673;28;45284;-61
2023/11/01 02:31:33;;;;;;;;;3.50;2.00;;;;;15.60;88.61;100097.66;5072687;28;48326;-61
2023/11/01 02:33:58;;;;;;;;;3.50;2.00;;;;;15.56;88.88;100090.75;5060937;28;45608;-62
2023/11/01 02:36:24;;;;;;;;;1.75;1.00;;;;;15.43;88.58;100063.75;5060778;28;45351;-61
2023/11/01 02:38:49;;;;;;;;;2.50;2.00;;;;;15.38;88.45;100055.13;5060850;28;45477;-61
2023/11/01 02:41:15;;;;;;;;;4.25;2.00;;;;;15.38;88.33;100050.63;5072639;28;47480;-62
2023/11/01 02:43:41;;;;;;;;;6.50;2.25;;;;;15.45;89.00;100060.97;5070643;28;46012;-61
2023/11/01 02:46:06;;;;;;;;;1.25;1.25;;;;;15.35;88.79;100042.75;5078963;28;45557;-61
2023/11/01 02:48:32;;;;;;;;;2.50;2.00;;;;;15.55;88.56;100065.69;5060662;28;45554;-62
2023/11/01 02:50:57;;;;;;;;;3.00;1.00;;;;;15.33;88.59;100031.19;5072478;28;47936;-61
2023/11/01 02:53:22;;;;;;;;;3.00;0.75;;;;;15.46;88.87;100050.13;5060583;28;45476;-61
2023/11/01 02:55:48;;;;;;;;;1.00;1.00;;;;;15.37;88.80;100026.53;5059974;28;45432;-62
2023/11/01 02:58:13;;;;;;;;;3.00;3.00;;;;;15.38;88.80;100025.53;5060640;28;45393;-61
2023/11/01 03:00:38;;;;;;;;;6.75;2.50;;;;;15.52;88.78;100044.34;5059901;28;46237;-61
2023/11/01 03:03:04;;;;;;;;;2.00;2.00;;;;;15.35;88.99;100025.72;5060472;28;45408;-61
2023/11/01 03:05:29;;;;;;;;;4.75;1.25;;;;;15.46;88.82;100036.66;5072705;28;45537;-62
2023/11/01 03:07:55;;;;;;;;;3.00;2.50;;;;;15.41;88.96;100033.41;5066861;28;45464;-61
2023/11/01 03:10:21;;;;;;;;;2.00;2.00;;;;;15.35;88.61;100023.03;5077126;28;47266;-61
2023/11/01 03:12:47;;;;;;;;;5.50;2.50;;;;;15.42;89.36;100029.78;5080454;27;45269;-62
2023/11/01 03:15:12;;;;;;;;;3.25;2.00;;;;;15.28;88.71;100003.75;5080174;27;45317;-61
2023/11/01 03:17:38;;;;;;;;;4.00;2.50;;;;;15.35;88.96;100001.53;5080464;27;46089;-61
2023/11/01 03:20:05;;;;;;;;;3.00;2.75;;;;;15.31;89.00;100008.06;5080124;27;46224;-62
2023/11/01 03:22:31;;;;;;;;;3.00;2.00;;;;;15.35;88.93;99998.84;5070984;28;45491;-61
2023/11/01 03:24:57;;;;;;;;;5.50;3.25;;;;;15.44;88.72;100017.09;5059043;28;45394;-61
2023/11/01 03:27:22;;;;;;;;;2.00;1.00;;;;;15.44;88.92;100022.47;5071400;28;45622;-62
2023/11/01 03:29:48;;;;;;;;;2.00;2.00;;;;;15.25;89.05;99992.31;5073774;28;47349;-61
2023/11/01 03:32:13;;;;;;;;;1.00;1.00;;;;;15.20;89.11;99979.16;5078650;28;45329;-62
2023/11/01 03:34:39;;;;;;;;;3.00;3.00;;;;;15.31;88.88;100000.00;5065080;28;45408;-61
2023/11/01 03:37:04;;;;;;;;;2.50;2.50;;;;;15.38;88.84;100006.72;5080333;27;45643;-61
2023/11/01 03:39:30;;;;;;;;;3.25;1.25;;;;;15.27;89.04;99980.53;5079872;27;46019;-61
2023/11/01 03:41:55;;;;;;;;;4.00;2.00;;;;;15.22;88.69;99965.63;5070984;28;45323;-61
2023/11/01 03:44:20;;;;;;;;;5.00;2.75;;;;;15.40;88.95;99991.34;5062050;28;45470;-61
2023/11/01 03:46:46;;;;;;;;;4.25;2.75;;;;;15.26;88.77;99970.72;5062318;28;45506;-61
2023/11/01 03:49:11;;;;;;;;;3.50;2.00;;;;;15.24;88.67;99971.78;5059539;28;45480;-62
2023/11/01 03:51:37;;;;;;;;;2.00;2.00;;;;;15.12;88.74;99957.31;5059681;28;45351;-61
2023/11/01 03:54:02;;;;;;;;;4.00;2.00;;;;;15.19;88.60;99967.56;5072092;28;45265;-62
2023/11/01 03:56:27;;;;;;;;;3.50;2.00;;;;;15.05;88.46;99946.09;5059574;28;45307;-61
2023/11/01 03:58:53;;;;;;;;;3.00;2.00;;;;;15.32;88.82;99993.69;5059120;28;46251;-61
2023/11/01 04:01:19;;;;;;;;;1.00;1.00;;;;;14.95;88.92;99929.69;5059476;28;45579;-61
2023/11/01 04:03:46;;;;;;;;;1.50;1.00;;;;;14.97;88.79;99930.44;5071801;28;45352;-61
2023/11/01 04:06:11;;;;;;;;;1.25;1.00;;;;;15.03;88.64;99934.56;5065586;28;45555;-62
2023/11/01 04:08:40;;;;;;;;;2.25;1.00;;;;;15.09;89.01;99939.53;5079262;28;45463;-62
2023/11/01 04:11:05;;;;;;;;;1.50;0.25;;;;;15.21;88.51;99959.41;5078334;27;45576;-61
2023/11/01 04:13:31;;;;;;;;;1.50;1.50;;;;;15.10;88.38;99941.28;5079398;27;45948;-61
2023/11/01 04:16:00;;;;;;;;;2.00;1.00;;;;;15.18;88.48;99954.22;5079530;27;45484;-61
2023/11/01 04:18:26;;;;;;;;;3.00;3.00;;;;;15.21;88.69;99950.47;5079431;27;46056;-61
2023/11/01 04:20:52;;;;;;;;;2.00;2.00;;;;;15.21;88.32;99947.78;5071208;28;45457;-62
2023/11/01 04:23:17;;;;;;;;;4.50;2.75;;;;;15.05;88.21;99927.28;5072540;28;45563;-62
2023/11/01 04:25:42;;;;;;;;;3.25;2.00;;;;;14.93;88.33;99898.47;5079301;27;45624;-61
2023/11/01 04:28:08;;;;;;;;;2.75;2.75;;;;;15.07;88.04;99933.41;5079275;27;45367;-62
2023/11/01 04:30:39;;;;;;;;;7.00;3.00;;;;;14.95;87.97;99904.63;5078810;27;45669;-62
2023/11/01 04:33:10;;;;;;;;;2.00;1.00;;;;;15.03;88.11;99907.69;5064730;28;45462;-62
2023/11/01 04:35:35;;;;;;;;;2.75;2.25;;;;;15.15;88.18;99925.72;5079372;27;45244;-61
2023/11/01 04:38:02;;;;;;;;;1.50;1.50;;;;;15.07;88.08;99919.09;5079064;27;45892;-62
2023/11/01 04:40:27;;;;;;;;;3.75;3.00;;;;;15.05;88.18;99921.91;5068726;28;45274;-61
2023/11/01 04:42:52;;;;;;;;;1.00;1.00;;;;;14.94;88.18;99897.53;5088272;27;46002;-62
2023/11/01 04:45:18;;;;;;;;;2.75;1.50;;;;;14.85;88.21;99892.72;5066316;28;45851;-62
2023/11/01 04:47:44;;;;;;;;;3.25;2.00;;;;;14.91;88.28;99882.47;5063247;27;45647;-61
2023/11/01 04:50:10;;;;;;;;;2.00;1.00;;;;;14.95;88.17;99880.44;5058851;28;45376;-61
2023/11/01 04:52:39;;;;;;;;;3.00;2.00;;;;;15.08;88.03;99899.31;5058843;28;45398;-61
2023/11/01 04:55:05;;;;;;;;;1.75;1.00;;;;;14.91;88.15;99868.16;5066570;28;45704;-61
2023/11/01 04:57:31;;;;;;;;;2.50;2.00;;;;;15.07;87.58;99897.59;5047405;28;47704;-62
2023/11/01 04:59:57;;;;;;;;;3.00;1.50;;;;;14.92;87.65;99873.44;5078752;27;45353;-61
2023/11/01 05:02:22;;;;;;;;;1.50;1.50;;;;;14.90;87.72;99874.50;5079122;27;45381;-61
2023/11/01 05:04:48;;;;;;;;;5.00;2.25;;;;;14.93;87.70;99883.22;5068048;28;45574;-61
2023/11/01 05:07:14;;;;;;;;;3.00;3.00;;;;;14.81;87.72;99851.78;5059701;28;48310;-61
2023/11/01 05:09:39;;;;;;;;;3.00;2.00;;;;;14.97;87.85;99875.84;5078793;27;45447;-61
2023/11/01 05:12:04;;;;;;;;;1.00;1.00;;;;;14.78;87.88;99838.53;5077457;28;45435;-62
2023/11/01 05:14:30;;;;;;;;;3.75;2.00;;;;;14.80;87.78;99837.50;5078410;28;45674;-62
2023/11/01 05:16:56;;;;;;;;;6.00;2.75;;;;;14.74;87.97;99832.50;5078756;27;45544;-61
2023/11/01 05:19:22;;;;;;;;;1.00;1.00;;;;;14.73;87.90;99844.19;5080377;28;45373;-61
2023/11/01 05:21:47;;;;;;;;;4.00;4.00;;;;;14.84;87.60;99859.63;5082305;27;45415;-61
2023/11/01 05:24:12;;;;;;;;;2.00;2.00;;;;;14.68;87.70;99840.09;5080781;28;45530;-61
2023/11/01 05:26:38;;;;;;;;;2.75;2.75;;;;;14.53;87.85;99812.34;5067175;28;47131;-61
2023/11/01 05:29:06;;;;;;;;;3.00;2.00;;;;;14.45;88.02;99800.28;5081896;27;45323;-61
2023/11/01 05:31:32;;;;;;;;;4.50;2.25;;;;;14.77;87.88;99852.94;5079801;27;45513;-61
2023/11/01 05:33:59;;;;;;;;;2.00;2.00;;;;;14.57;88.18;99820.13;5070951;28;45281;-61
2023/11/01 05:36:26;;;;;;;;;5.00;2.00;;;;;14.70;87.85;99838.16;5081951;27;45910;-61
2023/11/01 05:38:52;;;;;;;;;3.00;3.00;;;;;14.60;88.22;99825.34;5082047;27;45387;-62
2023/11/01 05:41:17;;;;;;;;;1.50;1.00;;;;;14.55;87.77;99808.63;5082037;27;45318;-61
2023/11/01 05:43:43;;;;;;;;;5.00;2.50;;;;;14.49;87.83;99792.88;5072321;27;45312;-62
2023/11/01 05:46:09;;;;;;;;;2.50;2.50;;;;;14.37;87.44;99778.44;5065684;28;46375;-61
2023/11/01 05:48:34;;;;;;;;;3.75;1.25;;;;;14.69;87.80;99828.41;5061652;28;45414;-61
2023/11/01 05:51:00;;;;;;;;;3.00;1.00;;;;;14.43;87.53;99786.09;5061554;28;45337;-61
2023/11/01 05:53:25;;;;;;;;;1.50;1.50;;;;;14.44;87.77;99785.13;5061390;28;45484;-62
2023/11/01 05:55:52;;;;;;;;;3.50;1.75;;;;;14.48;87.84;99787.63;5061268;28;45470;-61
2023/11/01 05:58:19;;;;;;;;;4.25;2.00;;;;;14.61;88.06;99796.66;5059764;28;45319;-61
2023/11/01 06:00:45;;;;;;;;;0.00;0.00;;;;;14.58;88.07;99791.44;5061297;28;45440;-61
2023/11/01 06:03:10;;;;;;;;;1.00;1.00;;;;;14.66;87.36;99805.25;5061233;28;45449;-61
2023/11/01 06:05:35;;;;;;;;;3.00;2.00;;;;;14.61;87.54;99793.97;5061087;28;46184;-61
2023/11/01 06:08:02;;;;;;;;;1.75;1.75;;;;;14.55;87.72;99795.19;5061116;28;45453;-61
2023/11/01 06:10:27;;;;;;;;;2.50;1.75;;;;;14.49;87.80;99778.59;5061195;28;45569;-61
2023/11/01 06:12:52;;;;;;;;;1.75;1.75;;;;;14.54;87.70;99787.22;5048677;28;45366;-61
2023/11/01 06:15:18;;;;;;;;;1.75;1.00;;;;;14.35;87.50;99761.56;5060620;28;46198;-61
2023/11/01 06:17:43;;;;;;;;;0.75;0.75;;;;;14.33;87.95;99757.22;5068895;28;45869;-62
2023/11/01 06:20:10;;;;;;;;;2.00;1.75;;;;;14.36;87.78;99765.09;5066307;28;45512;-61
2023/11/01 06:22:35;;;;;;;;;2.00;2.00;;;;;14.33;87.68;99760.78;5070721;28;45506;-61
2023/11/01 06:25:01;;;;;;;;;0.50;0.50;;;;;14.35;87.68;99764.25;5076643;28;45471;-61
2023/11/01 06:27:28;;;;;;;;;2.00;1.75;;;;;14.21;87.71;99738.25;5081442;27;45314;-61
2023/11/01 06:29:53;;;;;;;;;1.00;1.00;;;;;14.23;87.62;99743.53;5080034;27;45805;-61
2023/11/01 06:32:20;;;;;;;;;2.00;1.75;;;;;14.16;87.80;99737.69;5072384;27;45541;-61
2023/11/01 06:34:45;;;;;;;;;2.00;1.50;;;;;14.23;88.06;99749.78;5076172;28;46628;-61
2023/11/01 06:37:10;;;;;;;;;0.50;0.50;;;;;14.21;87.91;99750.81;5079684;28;45506;-61
2023/11/01 06:39:36;;;;;;;;;3.50;2.50;;;;;14.20;87.80;99754.47;5081064;27;45350;-61
2023/11/01 06:42:02;;;;;;;;;2.75;1.00;;;;;14.17;87.74;99754.69;5081097;27;45367;-61
2023/11/01 06:44:27;;;;;;;;;3.00;2.00;;;;;14.19;87.72;99755.44;5065094;27;45543;-61
2023/11/01 06:46:53;;;;;;;;;2.00;1.25;;;;;14.27;88.02;99767.41;5063423;28;45453;-61
2023/11/01 06:49:18;;;;;;;;;1.00;1.00;;;;;14.18;87.86;99749.22;5060487;28;45490;-61
2023/11/01 06:51:43;;;;;;;;;1.50;1.00;;;;;14.38;87.91;99782.84;5080906;27;45515;-61
2023/11/01 06:54:09;;;;;;;;;5.50;1.50;;;;;14.20;87.73;99747.28;5079270;28;47830;-61
2023/11/01 06:56:34;;;;;;;;;3.00;3.00;;;;;14.40;87.75;99780.03;5071639;28;45322;-61
2023/11/01 06:58:59;;;;;;;;;2.00;2.00;;;;;14.20;88.02;99746.41;5074723;28;45882;-61
2023/11/01 07:01:25;;;;;;;;;1.00;1.00;;;;;14.36;87.82;99782.06;5080769;27;45350;-61
2023/11/01 07:03:50;;;;;;;;;0.00;0.00;;;;;14.36;88.19;99770.47;5080599;27;46295;-61
2023/11/01 07:06:16;;;;;;;;;2.00;2.00;;;;;14.19;87.84;99758.13;5071559;28;45331;-61
2023/11/01 07:08:44;;;;;;;;;1.75;1.75;;;;;14.19;87.72;99755.44;5074860;28;45439;-61
2023/11/01 07:11:10;;;;;;;;;3.00;3.00;;;;;14.29;88.00;99770.00;5080601;27;45480;-61
2023/11/01 07:13:36;;;;;;;;;2.75;1.75;;;;;14.17;87.71;99752.84;5080037;27;45432;-61
2023/11/01 07:16:01;;;;;;;;;2.00;1.00;;;;;14.09;87.87;99734.53;5080545;27;45290;-61
2023/11/01 07:18:27;;;;;;;;;2.00;2.00;;;;;14.14;87.58;99752.19;5080582;27;45351;-61
2023/11/01 07:20:52;;;;;;;;;3.50;1.75;;;;;14.33;87.89;99770.66;5080317;28;45346;-62
2023/11/01 07:23:18;;;;;;;;;3.50;1.00;;;;;14.22;87.78;99760.63;5080093;27;45929;-61
2023/11/01 07:25:43;;;;;;;;;3.00;1.25;;;;;14.30;87.60;99773.53;5080391;27;45368;-62
2023/11/01 07:28:08;;;;;;;;;1.00;1.00;;;;;14.31;87.79;99767.22;5080212;27;45314;-61
2023/11/01 07:30:35;;;;;;;;;2.00;2.00;;;;;14.07;87.66;99723.03;5079938;27;45290;-61
2023/11/01 07:33:01;;;;;;;;;2.00;2.00;;;;;14.27;87.39;99761.19;5066545;27;45342;-61
2023/11/01 07:35:26;;;;;;;;;4.00;1.25;;;;;13.99;87.31;99711.94;5080183;27;45352;-61
2023/11/01 07:37:51;;;;;;;;;1.00;1.00;;;;;14.31;87.46;99757.31;5080242;27;45376;-61
2023/11/01 07:40:17;;;;;;;;;1.00;1.00;;;;;13.95;86.96;99698.78;5080197;27;45473;-61
2023/11/01 07:42:45;;;;;;;;;2.00;1.50;;;;;14.04;86.89;99723.22;5078861;27;45505;-61
2023/11/01 07:45:10;;;;;;;;;2.25;2.00;;;;;13.87;87.29;99689.41;5059367;28;45552;-62
2023/11/01 07:47:36;;;;;;;;;1.25;1.00;;;;;14.04;87.15;99725.91;5063408;28;45439;-61
2023/11/01 07:50:04;;;;;;;;;2.00;1.00;;;;;14.03;87.30;99717.97;5058320;28;45374;-61
2023/11/01 07:52:29;;;;;;;;;3.00;1.00;;;;;14.08;87.26;99730.16;5059331;28;47228;-61
2023/11/01 07:54:55;;;;;;;;;2.00;2.00;;;;;14.25;86.73;99744.31;5066470;28;45681;-61
2023/11/01 07:57:20;;;;;;;;;2.50;1.75;;;;;14.25;86.96;99741.63;5064903;27;45342;-61
2023/11/01 07:59:45;;;;;;;;;3.00;2.00;;;;;13.97;86.74;99700.44;5059300;28;45229;-61
2023/11/01 08:02:11;;;;;;;;;2.50;2.00;;;;;14.08;86.72;99707.78;5059382;28;45366;-61
2023/11/01 08:04:36;;;;;;;;;1.00;1.00;;;;;14.11;86.70;99712.97;5059464;28;45569;-62
2023/11/01 08:07:02;;;;;;;;;2.00;1.00;;;;;14.14;86.67;99723.50;5059257;28;45327;-61
2023/11/01 08:09:27;;;;;;;;;2.00;1.00;;;;;14.07;86.19;99706.94;5066336;28;45467;-61
2023/11/01 08:11:54;;;;;;;;;1.25;1.00;;;;;13.98;86.23;99694.13;5064017;28;47255;-62
2023/11/01 08:14:19;;;;;;;;;1.00;1.00;;;;;13.97;86.80;99695.06;5057632;28;45370;-61
2023/11/01 08:16:47;;;;;;;;;2.00;2.00;;;;;14.04;86.79;99696.41;5059302;28;45566;-61
2023/11/01 08:19:13;;;;;;;;;1.00;1.00;;;;;14.17;86.52;99720.63;5067009;28;45587;-61
2023/11/01 08:21:38;;;;;;;;;1.00;1.00;;;;;13.98;86.41;99680.72;5063521;27;46414;-61
2023/11/01 08:24:04;;;;;;;;;1.75;1.75;;;;;14.00;86.55;99677.91;5059180;28;45362;-61
2023/11/01 08:26:30;;;;;;;;;1.25;1.00;;;;;14.02;86.32;99666.13;5059223;28;45434;-61
2023/11/01 08:28:55;;;;;;;;;1.50;1.50;;;;;14.06;85.88;99677.50;5059069;28;45311;-61
2023/11/01 08:31:21;;;;;;;;;1.50;1.50;;;;;14.08;86.13;99670.22;5058626;28;46353;-61
2023/11/01 08:33:46;;;;;;;;;1.75;1.00;;;;;14.27;86.09;99702.13;5059202;28;45583;-61
2023/11/01 08:36:11;;;;;;;;;1.25;1.25;;;;;14.06;85.89;99667.63;5059063;28;45320;-61
2023/11/01 08:38:37;;;;;;;;;4.50;3.00;;;;;14.09;85.90;99667.44;5057616;28;45252;-61
2023/11/01 08:41:02;;;;;;;;;2.00;2.00;;;;;14.09;86.25;99667.44;5071251;28;47548;-61
2023/11/01 08:43:28;;;;;;;;;1.25;1.00;;;;;14.25;86.00;99685.28;5061297;28;45388;-61
2023/11/01 08:45:53;;;;;;;;;0.50;0.00;;;;;14.05;86.16;99640.94;5063221;28;45833;-61
2023/11/01 08:48:18;;;;;;;;;1.00;1.00;;;;;14.03;85.53;99630.28;5058913;28;45556;-61
2023/11/01 08:50:44;;;;;;;;;2.50;0.75;;;;;14.15;85.71;99647.41;5058663;28;45477;-61
2023/11/01 08:53:09;;;;;;;;;3.00;3.00;;;;;14.16;85.84;99643.75;5059783;28;45279;-61
2023/11/01 08:55:35;;;;;;;;;6.00;3.00;;;;;14.32;85.51;99661.56;5062514;28;45464;-61
2023/11/01 08:58:01;;;;;;;;;1.00;0.00;;;;;14.27;85.53;99653.81;5062474;28;45564;-62
2023/11/01 09:00:27;;;;;;;;;0.00;0.00;;;;;14.21;85.13;99641.63;5074276;28;47416;-61
2023/11/01 09:02:52;;;;;;;;;1.25;1.25;;;;;14.43;85.06;99667.97;5081302;28;45457;-61
2023/11/01 09:05:18;;;;;;;;;1.25;1.00;;;;;14.18;84.73;99622.19;5069429;27;45398;-61
2023/11/01 09:07:44;;;;;;;;;0.00;0.00;;;;;14.26;84.92;99625.25;5068808;28;45539;-61
2023/11/01 09:10:09;;;;;;;;;1.50;1.00;;;;;14.35;84.78;99638.06;5080932;28;47851;-64
2023/11/01 09:12:35;;;;;;;;;3.50;0.50;;;;;14.51;84.79;99659.38;5060980;28;45264;-64
2023/11/01 09:15:00;;;;;;;;;1.25;1.25;;;;;14.52;84.42;99665.63;5075046;28;45293;-61
2023/11/01 09:17:26;;;;;;;;;2.25;1.50;;;;;14.26;84.38;99612.66;5061334;28;45276;-62
2023/11/01 09:19:51;;;;;;;;;1.00;1.00;;;;;14.40;84.49;99627.88;5074517;28;46308;-62
2023/11/01 09:22:17;;;;;;;;;1.50;1.50;;;;;14.44;84.47;99628.53;5082092;27;45386;-63
2023/11/01 09:24:42;;;;;;;;;4.00;1.50;;;;;14.53;84.28;99638.66;5080997;27;45353;-64
2023/11/01 09:27:09;;;;;;;;;2.50;1.75;;;;;14.42;84.07;99625.97;5082053;27;45732;-64
2023/11/01 09:29:34;;;;;;;;;2.00;1.00;;;;;14.26;84.13;99593.88;5068127;27;47377;-64
2023/11/01 09:32:00;;;;;;;;;1.00;1.00;;;;;14.49;84.08;99630.94;5074366;28;45386;-61
2023/11/01 09:34:26;;;;;;;;;2.50;1.00;;;;;14.56;84.34;99637.59;5074882;28;45369;-61
2023/11/01 09:36:51;;;;;;;;;3.00;1.00;;;;;14.53;84.02;99629.75;5081903;27;45446;-61
2023/11/01 09:39:17;;;;;;;;;2.50;1.00;;;;;14.67;84.01;99658.38;5080456;28;47198;-61
2023/11/01 09:42:17;;;;;;;;;3.75;2.00;;;;;14.52;84.01;99626.22;5081880;28;45386;-61
2023/11/01 09:44:45;;;;;;;;;1.25;1.00;;;;;14.51;83.94;99620.94;5052953;28;45912;-61
2023/11/01 09:47:13;;;;;;;;;0.25;0.25;;;;;14.55;84.60;99622.44;5065714;28;45396;-63
2023/11/01 09:49:39;;;;;;;;;1.25;1.00;;;;;14.66;84.50;99643.25;5061453;28;45384;-64
2023/11/01 09:52:06;;;;;;;;;5.75;5.75;;;;;14.68;84.75;99650.22;5061402;28;45359;-64
2023/11/01 09:54:31;;;;;;;;;3.50;3.00;;;;;14.65;84.68;99637.03;5060238;28;45493;-62
2023/11/01 09:57:00;;;;;;;;;1.75;1.75;;;;;14.64;84.86;99636.16;5061666;28;45310;-61
2023/11/01 09:59:26;;;;;;;;;3.75;1.75;;;;;14.63;85.34;99630.88;5059399;28;47849;-61
2023/11/01 10:01:51;;;;;;;;;3.25;1.50;;;;;14.61;85.67;99619.38;5060058;28;45542;-61
2023/11/01 10:04:17;;;;;;;;;2.00;2.00;;;;;14.58;85.57;99607.00;5060283;28;45391;-61
2023/11/01 10:06:44;;;;;;;;;0.50;0.50;;;;;14.65;86.13;99626.28;5060984;28;45471;-61
2023/11/01 10:09:09;;;;;;;;;3.50;2.00;;;;;14.57;86.06;99599.06;5061037;28;46127;-61
2023/11/01 10:11:34;;;;;;;;;2.00;1.00;;;;;14.62;86.08;99615.75;5059768;28;45371;-61
2023/11/01 10:14:00;;;;;;;;;1.00;1.00;;;;;14.70;86.19;99618.78;5077991;28;45447;-61
2023/11/01 10:16:26;;;;;;;;;1.25;1.00;;;;;14.61;86.33;99601.44;5069774;27;45533;-61
2023/11/01 10:18:52;;;;;;;;;2.00;2.00;;;;;14.62;86.52;99602.31;5078148;28;46400;-61
2023/11/01 10:21:17;;;;;;;;;2.00;2.00;;;;;14.66;86.52;99611.03;5076502;28;45289;-61
2023/11/01 10:23:43;;;;;;;;;2.00;2.00;;;;;14.77;86.65;99620.09;5060819;28;45264;-61
2023/11/01 10:26:09;;;;;;;;;1.25;1.25;;;;;14.48;86.47;99579.03;5061277;28;45471;-61
2023/11/01 10:28:40;;;;;;;;;3.50;1.00;;;;;14.63;86.77;99593.28;5060344;28;45401;-62
2023/11/01 10:31:05;;;;;;;;;2.00;2.00;;;;;14.80;86.58;99622.56;5059737;28;45460;-61
2023/11/01 10:33:34;;;;;;;;;1.00;1.00;;;;;14.66;86.44;99589.53;5060786;28;45315;-61
2023/11/01 10:36:01;;;;;;;;;1.25;1.25;;;;;14.60;86.79;99575.56;5059531;28;45450;-61
2023/11/01 10:38:28;;;;;;;;;3.00;1.75;;;;;14.82;87.15;99595.59;5080078;28;45460;-61
2023/11/01 10:40:57;;;;;;;;;1.00;1.00;;;;;14.68;87.40;99579.53;5080983;27;45363;-61
2023/11/01 10:43:26;;;;;;;;;1.00;1.00;;;;;14.72;87.37;99571.19;5073951;27;45480;-61
2023/11/01 10:45:53;;;;;;;;;1.00;1.00;;;;;14.89;87.97;99601.41;5064154;28;45513;-61
2023/11/01 10:48:19;;;;;;;;;0.75;0.00;;;;;14.74;88.15;99584.50;5060716;28;45912;-61
2023/11/01 10:50:45;;;;;;;;;2.00;1.00;;;;;14.73;87.92;99583.63;5060319;28;45542;-61
2023/11/01 10:53:11;;;;;;;;;1.00;1.00;;;;;14.55;87.81;99555.31;5060762;28;45389;-61
2023/11/01 10:55:38;;;;;;;;;4.25;1.00;;;;;14.70;88.14;99565.06;5060447;28;45334;-61
2023/11/01 10:58:05;;;;;;;;;0.75;0.25;;;;;14.71;88.07;99572.13;5066309;28;47199;-61
2023/11/01 11:00:57;;;;;;;;;1.00;1.00;;;;;14.81;88.50;99588.50;5075843;28;46001;-61
2023/11/01 11:03:32;;;;;;;;;1.00;1.00;;;;;14.85;88.66;99591.81;5059205;28;45540;-61
2023/11/01 11:05:58;;;;;;;;;0.50;0.50;;;;;14.79;88.67;99575.16;5079212;28;45349;-61
2023/11/01 11:08:24;;;;;;;;;2.00;2.00;;;;;14.73;88.22;99563.97;5080749;27;45422;-61
2023/11/01 11:10:49;;;;;;;;;2.25;1.50;;;;;14.78;88.70;99569.88;5080376;27;45432;-61
2023/11/01 11:13:18;;;;;;;;;2.00;1.00;;;;;14.86;88.55;99580.97;5079109;27;45418;-61
2023/11/01 11:15:46;;;;;;;;;3.00;2.00;;;;;14.87;88.62;99579.13;5079955;27;45607;-61
2023/11/01 11:18:12;;;;;;;;;1.75;1.00;;;;;14.78;88.36;99559.16;5080375;27;47254;-61
2023/11/01 11:20:40;;;;;;;;;2.00;2.00;;;;;14.87;88.47;99571.97;5080304;27;45538;-61
2023/11/01 11:23:06;;;;;;;;;3.00;1.00;;;;;14.91;88.46;99561.84;5080362;27;45455;-61
2023/11/01 11:25:37;;;;;;;;;1.00;1.00;;;;;14.92;88.84;99560.91;5080405;27;45636;-62